WetterOnline ( http://www.wetteronline.at )

Wetter aktuell Dresden

Aktuelles Wetter: Zinnwald (882m)

6-stündlich | Neueste Meldungen
Ortszeit Temperatur Wetter
Di, 28.02. 1:00 1.2° C wolkenlos
Mo, 27.02. 19:00 5.0° C wolkenlos
Mo, 27.02. 13:00 5.5° C wolkenlos
Mo, 27.02. 7:00 3.3° C bedeckt
Ortszeit Temperatur Wetter
Di, 28.02. 6:00 0.5° C bewölkt
Di, 28.02. 5:30 0.3° C wolkig
Di, 28.02. 5:00 0.6° C bewölkt
Di, 28.02. 4:30 1.4° C bewölkt
Di, 28.02. 4:00 4.0° C bewölkt
Di, 28.02. 3:30 3.9° C bedeckt
Ortszeit Relative Feuchte Sichtweite
Di, 28.02. 1:00 85% 15 km
Mo, 27.02. 19:00 67% 30 km
Mo, 27.02. 13:00 74% 26 km
Mo, 27.02. 7:00 85% 70 km
Ortszeit Relative Feuchte Sichtweite
Di, 28.02. 6:00 92% 8 km
Di, 28.02. 5:30 95% 5.0 km
Di, 28.02. 5:00 92% 7 km
Di, 28.02. 4:30 85% 11 km
Di, 28.02. 4:00 65% 35 km
Di, 28.02. 3:30 64% 45 km
Ortszeit Niederschlagsmenge Niederschlagsart
Di, 28.02. 1:00 0,0 l/m2 in 6 Std. -
Mo, 27.02. 19:00 0,0 l/m2 in 12 Std. -
Mo, 27.02. 13:00 0,0 l/m2 in 6 Std. -
Mo, 27.02. 7:00 0,0 l/m2 in 12 Std. -
Ortszeit Niederschlagsmenge Niederschlagsart
Di, 28.02. 6:00 0,0 l/m2 in 1 Std. -
Di, 28.02. 5:30 keine Meldung -
Di, 28.02. 5:00 0,0 l/m2 in 1 Std. -
Di, 28.02. 4:30 keine Meldung -
Di, 28.02. 4:00 0,0 l/m2 in 1 Std. -
Di, 28.02. 3:30 keine Meldung -
Ortszeit Stärke Spitze Richtung
km/h Bft. km/h Grad Sektor
Di, 28.02. 1:00 29 5 43 180° S
Mo, 27.02. 19:00 31 5 56 180° S
Mo, 27.02. 13:00 29 5 50 200° S
Mo, 27.02. 7:00 20 4 41 220° SW
Ortszeit Stärke Spitze Richtung
km/h Bft. km/h Grad Sektor
Di, 28.02. 6:00 20 4 30 180° S
Di, 28.02. 5:30 24 4 30 170° S
Di, 28.02. 5:00 24 4 37 180° S
Di, 28.02. 4:30 20 4 37 170° S
Di, 28.02. 4:00 29 5 43 210° SW
Di, 28.02. 3:30 31 5 44 200° S
Ortszeit Untergrenze Bedeckung Gattung
total tief tief mittel hoch
Di, 28.02. 1:00 - 0/8 0/8 - - -
Mo, 27.02. 19:00 - 0/8 0/8 - - -
Mo, 27.02. 13:00 - 0/8 0/8 - - -
Mo, 27.02. 7:00 420 m 8/8 8/8 - - -
Ortszeit Bedeckungsgrad in Achtel und Wolkenuntergrenze
Di, 28.02. 6:00 6(2700m) 7(4200m) 8(5100m)
Di, 28.02. 5:30 5(2700m) 6(3600m) 7(5400m)
Di, 28.02. 5:00 6(2700m) 7(3300m) 7(6600m)
Di, 28.02. 4:30 2(5100m) 7(6000m)
Di, 28.02. 4:00 7(6000m)
Di, 28.02. 3:30 5(5700m) 8(6600m)
Ortszeit Stationsdruck (hPa) Tendenz (hPa in 3 Std.)
Di, 28.02. 1:00 898 - 1,6
Mo, 27.02. 19:00 901 - 2,0
Mo, 27.02. 13:00 906 - 1,9
Mo, 27.02. 7:00 909 - 1,0
Ortszeit Stationsdruck (hPa) Tendenz (hPa in 3 Std.)
Di, 28.02. 6:00 895 - 1,2
Di, 28.02. 5:30 895 - 2,1
Di, 28.02. 5:00 895 - 2,2
Di, 28.02. 4:30 896 - 1,9
Di, 28.02. 4:00 896 - 1,3
Di, 28.02. 3:30 896 - 1,3
Ortszeit Schneehöhe (cm)
Di, 28.02. 1:00 9
Mo, 27.02. 19:00 9
Mo, 27.02. 13:00 11
Mo, 27.02. 7:00 12
Ortszeit Schneehöhe (cm)
Di, 28.02. 6:00 9
Di, 28.02. 5:30 9
Di, 28.02. 5:00 9
Di, 28.02. 4:30 9
Di, 28.02. 4:00 9
Di, 28.02. 3:30 9
Link zu dieser Seite / Seite empfehlen

Das Wetter in ...